createdAt,value
2023-04-12T00:00:14.742Z,4.83
2023-04-12T00:01:14.732Z,4.83
2023-04-12T00:02:14.809Z,4.80
2023-04-12T00:03:14.808Z,4.80
2023-04-12T00:04:14.871Z,4.83
2023-04-12T00:05:14.745Z,4.83
2023-04-12T00:06:14.646Z,4.89
2023-04-12T00:07:14.630Z,4.89
2023-04-12T00:08:14.620Z,4.95
2023-04-12T00:09:14.612Z,4.98
2023-04-12T00:10:14.589Z,4.99
2023-04-12T00:11:14.595Z,5.02
2023-04-12T00:12:14.572Z,5.04
2023-04-12T00:13:14.563Z,5.09
2023-04-12T00:14:14.582Z,5.07
2023-04-12T00:15:14.520Z,5.09
2023-04-12T00:16:14.550Z,5.05
2023-04-12T00:17:14.538Z,5.05
2023-04-12T00:18:14.513Z,5.04
2023-04-12T00:19:14.478Z,5.01
2023-04-12T00:20:14.513Z,4.98
2023-04-12T00:21:14.466Z,4.99
2023-04-12T00:22:14.442Z,4.98
2023-04-12T00:23:14.450Z,4.99
2023-04-12T00:24:14.416Z,4.99
2023-04-12T00:25:14.413Z,4.96
2023-04-12T00:26:14.415Z,4.95
2023-04-12T00:27:14.397Z,4.95
2023-04-12T00:28:14.364Z,4.95
2023-04-12T00:29:14.347Z,4.95
2023-04-12T00:30:14.355Z,4.95
2023-04-12T00:31:14.374Z,4.92
2023-04-12T00:32:14.305Z,4.94
2023-04-12T00:33:14.296Z,4.91
2023-04-12T00:34:14.300Z,4.88
2023-04-12T00:35:14.278Z,4.89
2023-04-12T00:36:14.377Z,4.88
2023-04-12T00:37:14.249Z,4.86
2023-04-12T00:38:14.245Z,4.86
2023-04-12T00:39:14.228Z,4.89
2023-04-12T00:40:14.253Z,4.89
2023-04-12T00:41:14.211Z,4.94
2023-04-12T00:42:14.182Z,4.94
2023-04-12T00:43:14.162Z,4.92
2023-04-12T00:44:14.157Z,4.94
2023-04-12T00:45:14.149Z,4.91
2023-04-12T00:46:14.148Z,4.89
2023-04-12T00:47:14.107Z,4.91
2023-04-12T00:48:14.105Z,4.91
2023-04-12T00:49:14.097Z,4.86
2023-04-12T00:50:14.111Z,4.86
2023-04-12T00:51:14.069Z,4.88
2023-04-12T00:52:14.074Z,4.84
2023-04-12T00:53:14.052Z,4.84
2023-04-12T00:54:14.040Z,4.83
2023-04-12T00:55:14.049Z,4.79
2023-04-12T00:56:14.007Z,4.77
2023-04-12T00:57:13.991Z,4.77
2023-04-12T00:58:13.994Z,4.75
2023-04-12T00:59:13.964Z,4.75
2023-04-12T01:00:14.134Z,4.75
2023-04-12T01:01:13.993Z,4.72
2023-04-12T01:02:14.005Z,4.69
2023-04-12T01:03:14.131Z,4.65
2023-04-12T01:04:14.020Z,4.65
2023-04-12T01:05:13.895Z,4.65
2023-04-12T01:06:13.912Z,4.65
2023-04-12T01:07:13.875Z,4.65
2023-04-12T01:08:13.860Z,4.62
2023-04-12T01:09:13.852Z,4.62
2023-04-12T01:10:13.831Z,4.62
2023-04-12T01:11:13.812Z,4.61
2023-04-12T01:12:13.804Z,4.62
2023-04-12T01:13:13.769Z,4.62
2023-04-12T01:14:13.786Z,4.59
2023-04-12T01:15:13.756Z,4.55
2023-04-12T01:16:13.787Z,4.57
2023-04-12T01:17:13.715Z,4.55
2023-04-12T01:18:13.735Z,4.57
2023-04-12T01:19:13.698Z,4.58
2023-04-12T01:20:13.832Z,4.58
2023-04-12T01:21:13.676Z,4.59
2023-04-12T01:22:13.756Z,4.58
2023-04-12T01:23:13.650Z,4.59
2023-04-12T01:24:13.695Z,4.59
2023-04-12T01:25:13.637Z,4.61
2023-04-12T01:26:13.624Z,4.58
2023-04-12T01:27:13.656Z,4.59
2023-04-12T01:28:13.588Z,4.62
2023-04-12T01:29:13.582Z,4.61
2023-04-12T01:30:13.578Z,4.59
2023-04-12T01:31:13.591Z,4.58
2023-04-12T01:32:13.544Z,4.58
2023-04-12T01:33:13.526Z,4.57
2023-04-12T01:34:13.494Z,4.55
2023-04-12T01:35:13.492Z,4.54
2023-04-12T01:36:13.508Z,4.51
2023-04-12T01:37:13.480Z,4.52
2023-04-12T01:38:13.450Z,4.51
2023-04-12T01:39:13.457Z,4.50
2023-04-12T01:40:13.449Z,4.50
2023-04-12T01:41:13.414Z,4.51
2023-04-12T01:42:13.420Z,4.57
2023-04-12T01:43:13.417Z,4.59
2023-04-12T01:44:13.385Z,4.59
2023-04-12T01:45:13.370Z,4.61
2023-04-12T01:46:13.419Z,4.62
2023-04-12T01:47:13.347Z,4.62
2023-04-12T01:48:13.520Z,4.62
2023-04-12T01:49:13.307Z,4.61
2023-04-12T01:50:13.337Z,4.61
2023-04-12T01:51:13.293Z,4.59
2023-04-12T01:52:13.275Z,4.58
2023-04-12T01:53:13.273Z,4.61
2023-04-12T01:54:13.258Z,4.61
2023-04-12T01:55:13.224Z,4.64
2023-04-12T01:56:13.252Z,4.67
2023-04-12T01:57:13.208Z,4.65
2023-04-12T01:58:13.202Z,4.62
2023-04-12T01:59:13.176Z,4.62
2023-04-12T02:00:13.201Z,4.62
2023-04-12T02:01:13.225Z,4.62
2023-04-12T02:02:13.244Z,4.61
2023-04-12T02:03:13.315Z,4.64
2023-04-12T02:04:13.265Z,4.64
2023-04-12T02:05:13.105Z,4.67
2023-04-12T02:06:13.109Z,4.69
2023-04-12T02:07:13.099Z,4.70
2023-04-12T02:08:13.087Z,4.72
2023-04-12T02:09:13.058Z,4.73
2023-04-12T02:10:13.052Z,4.73
2023-04-12T02:11:13.063Z,4.72
2023-04-12T02:12:13.009Z,4.72
2023-04-12T02:13:13.016Z,4.72
2023-04-12T02:14:12.979Z,4.72
2023-04-12T02:15:12.971Z,4.70
2023-04-12T02:16:12.995Z,4.70
2023-04-12T02:17:12.957Z,4.70
2023-04-12T02:18:12.973Z,4.70
2023-04-12T02:19:12.957Z,4.69
2023-04-12T02:20:12.909Z,4.70
2023-04-12T02:21:12.917Z,4.69
2023-04-12T02:22:12.879Z,4.72
2023-04-12T02:23:12.879Z,4.72
2023-04-12T02:24:12.868Z,4.70
2023-04-12T02:25:12.858Z,4.70
2023-04-12T02:26:12.835Z,4.69
2023-04-12T02:27:12.844Z,4.69
2023-04-12T02:28:12.826Z,4.72
2023-04-12T02:29:12.813Z,4.73
2023-04-12T02:30:12.781Z,4.72
2023-04-12T02:31:12.800Z,4.70
2023-04-12T02:32:12.750Z,4.70
2023-04-12T02:33:12.752Z,4.69
2023-04-12T02:34:12.729Z,4.69
2023-04-12T02:35:12.713Z,4.69
2023-04-12T02:36:12.739Z,4.72
2023-04-12T02:37:12.685Z,4.72
2023-04-12T02:38:12.669Z,4.73
2023-04-12T02:39:12.668Z,4.69
2023-04-12T02:40:12.662Z,4.65
2023-04-12T02:41:12.645Z,4.64
2023-04-12T02:42:12.642Z,4.64
2023-04-12T02:43:12.607Z,4.65
2023-04-12T02:44:12.625Z,4.65
2023-04-12T02:45:12.590Z,4.67
2023-04-12T02:46:12.620Z,4.70
2023-04-12T02:47:12.563Z,4.72
2023-04-12T02:48:12.616Z,4.76
2023-04-12T02:49:12.536Z,4.77
2023-04-12T02:50:12.541Z,4.77
2023-04-12T02:51:12.534Z,4.79
2023-04-12T02:52:12.496Z,4.79
2023-04-12T02:53:12.516Z,4.77
2023-04-12T02:54:12.484Z,4.79
2023-04-12T02:55:12.480Z,4.79
2023-04-12T02:56:12.468Z,4.76
2023-04-12T02:57:12.441Z,4.73
2023-04-12T02:58:12.428Z,4.72
2023-04-12T02:59:12.412Z,4.73
2023-04-12T03:00:12.539Z,4.75
2023-04-12T03:01:12.394Z,4.77
2023-04-12T03:02:12.454Z,4.77
2023-04-12T03:03:12.495Z,4.79
2023-04-12T03:04:12.427Z,4.79
2023-04-12T03:05:12.349Z,4.79
2023-04-12T03:06:12.352Z,4.77
2023-04-12T03:07:12.320Z,4.79
2023-04-12T03:08:12.285Z,4.83
2023-04-12T03:09:12.290Z,4.83
2023-04-12T03:10:12.262Z,4.84
2023-04-12T03:11:12.251Z,4.86
2023-04-12T03:12:12.242Z,4.88
2023-04-12T03:13:12.245Z,4.92
2023-04-12T03:14:12.198Z,4.92
2023-04-12T03:15:12.198Z,4.94
2023-04-12T03:16:12.222Z,4.98
2023-04-12T03:17:12.198Z,5.02
2023-04-12T03:18:12.208Z,5.05
2023-04-12T03:19:12.159Z,5.07
2023-04-12T03:20:12.180Z,5.12
2023-04-12T03:21:12.170Z,5.14
2023-04-12T03:22:12.120Z,5.19
2023-04-12T03:23:12.098Z,5.23
2023-04-12T03:24:12.112Z,5.31
2023-04-12T03:25:12.118Z,5.32
2023-04-12T03:26:12.053Z,5.38
2023-04-12T03:27:12.051Z,5.43
2023-04-12T03:28:12.020Z,5.49
2023-04-12T03:29:12.018Z,5.53
2023-04-12T03:30:12.015Z,5.59
2023-04-12T03:31:12.037Z,5.63
2023-04-12T03:32:12.006Z,5.66
2023-04-12T03:33:11.973Z,5.67
2023-04-12T03:34:11.950Z,5.68
2023-04-12T03:35:11.959Z,5.74
2023-04-12T03:36:11.939Z,5.75
2023-04-12T03:37:12.098Z,5.78
2023-04-12T03:38:11.986Z,5.85
2023-04-12T03:39:11.879Z,5.89
2023-04-12T03:40:11.880Z,5.96
2023-04-12T03:41:11.854Z,6.00
2023-04-12T03:42:21.554Z,6.04
2023-04-12T03:43:12.828Z,6.09
2023-04-12T03:44:11.832Z,6.11
2023-04-12T03:45:11.801Z,6.11
2023-04-12T03:46:11.827Z,6.14
2023-04-12T03:47:11.788Z,6.14
2023-04-12T03:48:11.795Z,6.16
2023-04-12T03:49:11.759Z,6.18
2023-04-12T04:03:02.290Z,6.25
2023-04-12T04:04:02.781Z,6.25
2023-04-12T04:05:02.270Z,6.26
2023-04-12T04:06:02.167Z,6.26
2023-04-12T04:07:02.170Z,6.26
2023-04-12T04:08:02.217Z,6.26
2023-04-12T04:09:02.163Z,6.25
2023-04-12T04:10:02.136Z,6.28
2023-04-12T04:11:02.125Z,6.29
2023-04-12T04:12:02.155Z,6.29
2023-04-12T04:13:02.075Z,6.30
2023-04-12T04:14:02.089Z,6.30
2023-04-12T04:15:02.056Z,6.32
2023-04-12T04:16:02.096Z,6.32
2023-04-12T04:17:02.025Z,6.33
2023-04-12T04:18:02.057Z,6.33
2023-04-12T04:19:02.113Z,6.33
2023-04-12T04:20:01.989Z,6.33
2023-04-12T04:21:01.988Z,6.32
2023-04-12T04:22:01.966Z,6.30
2023-04-12T04:23:01.963Z,6.30
2023-04-12T04:24:01.946Z,6.29
2023-04-12T04:25:01.958Z,6.30
2023-04-12T04:26:01.924Z,6.32
2023-04-12T04:27:01.884Z,6.33
2023-04-12T04:28:01.900Z,6.32
2023-04-12T04:29:01.871Z,6.33
2023-04-12T04:30:01.876Z,6.35
2023-04-12T04:31:01.859Z,6.35
2023-04-12T04:32:01.887Z,6.35
2023-04-12T04:33:01.915Z,6.38
2023-04-12T04:34:01.809Z,6.38
2023-04-12T04:35:01.799Z,6.40
2023-04-12T04:36:01.852Z,6.40
2023-04-12T04:37:01.768Z,6.41
2023-04-12T04:38:01.769Z,6.43
2023-04-12T04:39:01.805Z,6.46
2023-04-12T04:40:01.717Z,6.46
2023-04-12T04:41:01.726Z,6.47
2023-04-12T04:42:01.725Z,6.47
2023-04-12T04:43:01.696Z,6.47
2023-04-12T04:44:01.673Z,6.46
2023-04-12T04:45:01.690Z,6.46
2023-04-12T04:46:01.669Z,6.46
2023-04-12T04:47:01.646Z,6.48
2023-04-12T04:48:01.658Z,6.48
2023-04-12T04:49:01.693Z,6.48
2023-04-12T04:50:01.618Z,6.48
2023-04-12T04:51:01.580Z,6.50
2023-04-12T04:52:01.569Z,6.53
2023-04-12T04:53:01.571Z,6.50
2023-04-12T04:54:01.600Z,6.53
2023-04-12T04:55:02.921Z,6.54
2023-04-12T04:56:01.552Z,6.53
2023-04-12T04:57:01.494Z,6.54
2023-04-12T04:58:01.503Z,6.54
2023-04-12T04:59:01.737Z,6.54
2023-04-12T05:00:01.454Z,6.56
2023-04-12T05:01:01.479Z,6.56
2023-04-12T05:02:01.472Z,6.58
2023-04-12T05:03:01.516Z,6.59
2023-04-12T05:04:01.545Z,6.61
2023-04-12T05:05:01.418Z,6.63
2023-04-12T05:06:01.405Z,6.63
2023-04-12T05:07:01.374Z,6.66
2023-04-12T05:08:01.366Z,6.68
2023-04-12T05:09:01.347Z,6.71
2023-04-12T05:10:01.411Z,6.72
2023-04-12T05:11:01.338Z,6.76
2023-04-12T05:12:01.305Z,6.77
2023-04-12T05:13:01.324Z,6.79
2023-04-12T05:14:01.290Z,6.77
2023-04-12T05:16:01.264Z,6.81
2023-04-12T05:17:01.371Z,6.80
2023-04-12T05:18:01.269Z,6.81
2023-04-12T05:19:01.211Z,6.81
2023-04-12T05:20:01.213Z,6.83
2023-04-12T05:21:01.189Z,6.84
2023-04-12T05:22:01.177Z,6.84
2023-04-12T05:23:01.224Z,6.87
2023-04-12T05:24:01.187Z,6.90
2023-04-12T05:25:01.145Z,6.91
2023-04-12T05:26:01.134Z,6.91
2023-04-12T05:27:01.130Z,6.97
2023-04-12T05:28:01.108Z,6.98
2023-04-12T05:29:01.095Z,6.98
2023-04-12T05:30:01.134Z,7.02
2023-04-12T05:31:01.126Z,7.04
2023-04-12T05:32:01.037Z,7.07
2023-04-12T05:33:01.096Z,7.08
2023-04-12T05:34:01.040Z,7.12
2023-04-12T05:35:01.029Z,7.13
2023-04-12T05:36:01.054Z,7.15
2023-04-12T05:37:00.981Z,7.17
2023-04-12T05:38:00.976Z,7.19
2023-04-12T05:39:00.992Z,7.22
2023-04-12T05:40:00.954Z,7.23
2023-04-12T05:41:00.960Z,7.27
2023-04-12T05:42:00.940Z,7.31
2023-04-12T05:43:00.946Z,7.34
2023-04-12T05:44:00.892Z,7.35
2023-04-12T05:45:00.886Z,7.37
2023-04-12T05:46:00.905Z,7.40
2023-04-12T05:47:00.870Z,7.41
2023-04-12T05:48:00.904Z,7.41
2023-04-12T05:49:00.832Z,7.41
2023-04-12T05:50:00.830Z,7.42
2023-04-12T05:51:00.857Z,7.44
2023-04-12T05:52:00.791Z,7.44
2023-04-12T05:53:00.774Z,7.45
2023-04-12T05:54:00.793Z,7.47
2023-04-12T05:55:00.787Z,7.52
2023-04-12T05:56:00.757Z,7.55
2023-04-12T05:57:00.724Z,7.56
2023-04-12T05:58:00.723Z,7.60
2023-04-12T05:59:00.716Z,7.62
2023-04-12T06:00:00.685Z,7.60
2023-04-12T06:01:00.701Z,7.62
2023-04-12T06:02:00.728Z,7.62
2023-04-12T06:03:00.837Z,7.66
2023-04-12T06:04:00.793Z,7.67
2023-04-12T06:05:00.717Z,7.71
2023-04-12T06:06:00.619Z,7.69
2023-04-12T06:07:00.640Z,7.71
2023-04-12T06:08:00.635Z,7.74
2023-04-12T06:09:00.662Z,7.75
2023-04-12T06:10:00.580Z,7.77
2023-04-12T06:11:00.551Z,7.77
2023-04-12T06:12:00.554Z,7.75
2023-04-12T06:13:00.544Z,7.78
2023-04-12T06:14:00.508Z,7.77
2023-04-12T06:15:00.522Z,7.75
2023-04-12T06:16:00.525Z,7.75
2023-04-12T06:17:00.502Z,7.69
2023-04-12T06:18:00.611Z,7.66
2023-04-12T06:19:00.771Z,7.63
2023-04-12T06:20:00.461Z,7.63
2023-04-12T06:21:00.451Z,7.66
2023-04-12T06:22:00.436Z,7.69
2023-04-12T06:23:00.424Z,7.71
2023-04-12T06:24:00.402Z,7.74
2023-04-12T06:25:00.389Z,7.71
2023-04-12T06:26:00.419Z,7.75
2023-04-12T06:27:00.366Z,7.77
2023-04-12T06:28:00.340Z,7.79
2023-04-12T06:29:00.320Z,7.75
2023-04-12T06:30:00.309Z,7.69
2023-04-12T06:31:00.389Z,7.69
2023-04-12T06:32:00.311Z,7.72
2023-04-12T06:33:00.330Z,7.72
2023-04-12T06:34:00.278Z,7.71
2023-04-12T06:35:00.247Z,7.72
2023-04-12T06:36:00.261Z,7.69
2023-04-12T06:37:00.228Z,7.66
2023-04-12T06:38:00.241Z,7.66
2023-04-12T06:39:00.193Z,7.69
2023-04-12T06:40:00.243Z,7.71
2023-04-12T06:41:00.156Z,7.74
2023-04-12T06:42:00.161Z,7.77
2023-04-12T06:43:00.178Z,7.77
2023-04-12T06:44:00.151Z,7.78
2023-04-12T06:45:00.190Z,7.81
2023-04-12T06:46:00.308Z,7.79
2023-04-12T06:47:00.207Z,7.79
2023-04-12T06:48:00.174Z,7.81
2023-04-12T06:49:00.363Z,7.84
2023-04-12T06:50:00.051Z,7.82
2023-04-12T06:51:00.059Z,7.84
2023-04-12T06:52:00.053Z,7.87
2023-04-12T06:53:00.018Z,7.85
2023-04-12T06:54:00.007Z,7.89
2023-04-12T06:54:59.995Z,7.90
2023-04-12T06:55:59.998Z,7.93
2023-04-12T06:56:59.981Z,7.96
2023-04-12T06:57:59.967Z,7.90
2023-04-12T06:59:00.346Z,7.90
2023-04-12T06:59:59.943Z,7.90
2023-04-12T07:00:59.962Z,7.90
2023-04-12T07:01:59.928Z,7.90
2023-04-12T07:02:59.960Z,7.92
2023-04-12T07:03:59.951Z,7.93
2023-04-12T07:04:59.855Z,7.94
2023-04-12T07:06:02.141Z,7.96
2023-04-12T07:07:00.844Z,7.94
2023-04-12T07:07:59.812Z,7.99
2023-04-12T07:09:00.012Z,8.00
2023-04-12T07:09:59.818Z,7.96
2023-04-12T07:11:08.612Z,7.96
2023-04-12T07:12:00.778Z,7.99
2023-04-12T07:12:59.755Z,8.00
2023-04-12T07:13:59.779Z,7.94
2023-04-12T07:14:59.731Z,7.93
2023-04-12T07:15:59.735Z,7.93
2023-04-12T07:16:59.732Z,7.89
2023-04-12T07:17:59.739Z,7.89
2023-04-12T07:19:00.036Z,7.93
2023-04-12T07:19:59.663Z,7.85
2023-04-12T07:20:59.669Z,7.87
2023-04-12T07:21:59.671Z,7.92
2023-04-12T07:22:59.624Z,7.90
2023-04-12T07:23:59.653Z,7.92
2023-04-12T07:24:59.598Z,7.94
2023-04-12T07:25:59.568Z,7.96
2023-04-12T07:26:59.561Z,7.93
2023-04-12T07:27:59.549Z,7.96
2023-04-12T07:28:59.672Z,7.90
2023-04-12T07:29:59.555Z,7.87
2023-04-12T07:30:59.523Z,7.89
2023-04-12T07:31:59.766Z,7.90
2023-04-12T07:33:08.727Z,7.78
2023-04-12T07:34:00.547Z,7.75
2023-04-12T07:34:59.500Z,7.77
2023-04-12T07:35:59.485Z,7.78
2023-04-12T07:36:59.434Z,7.71
2023-04-12T07:37:59.420Z,7.69
2023-04-12T07:38:59.707Z,7.71
2023-04-12T07:39:59.442Z,7.69
2023-04-12T07:40:59.396Z,7.67
2023-04-12T07:41:59.421Z,7.72
2023-04-12T07:42:59.369Z,7.75
2023-04-12T07:43:59.342Z,7.77
2023-04-12T07:44:59.339Z,7.78
2023-04-12T07:45:59.461Z,7.81
2023-04-12T07:46:59.306Z,7.84
2023-04-12T07:47:59.352Z,7.89
2023-04-12T07:48:59.532Z,7.96
2023-04-12T07:49:59.267Z,7.94
2023-04-12T07:50:59.259Z,7.92
2023-04-12T07:51:59.237Z,7.93
2023-04-12T07:52:59.255Z,7.96
2023-04-12T07:53:59.417Z,8.00
2023-04-12T07:54:59.243Z,8.10
2023-04-12T07:55:59.195Z,8.12
2023-04-12T07:56:59.189Z,8.11
2023-04-12T07:57:59.152Z,8.14
2023-04-12T07:58:59.515Z,8.20
2023-04-12T07:59:59.166Z,8.26
2023-04-12T08:01:01.087Z,8.25
2023-04-12T08:01:59.210Z,8.25
2023-04-12T08:02:59.268Z,8.26
2023-04-12T08:03:59.251Z,8.26
2023-04-12T08:04:59.091Z,8.30
2023-04-12T08:05:59.177Z,8.29
2023-04-12T08:06:59.046Z,8.32
2023-04-12T08:07:59.076Z,8.29
2023-04-12T08:08:59.045Z,8.26
2023-04-12T08:09:59.002Z,8.33
2023-04-12T08:10:58.986Z,8.35
2023-04-12T08:11:58.985Z,8.37
2023-04-12T08:12:58.959Z,8.45
2023-04-12T08:13:59.165Z,8.54
2023-04-12T08:14:58.967Z,8.58
2023-04-12T08:15:58.985Z,8.53
2023-04-12T08:16:58.932Z,8.51
2023-04-12T08:17:58.940Z,8.50
2023-04-12T08:18:58.890Z,8.42
2023-04-12T08:19:58.894Z,8.39
2023-04-12T08:20:58.895Z,8.47
2023-04-12T08:21:58.892Z,8.55
2023-04-12T08:22:58.865Z,8.65
2023-04-12T08:23:59.205Z,8.73
2023-04-12T08:24:58.812Z,8.76
2023-04-12T08:25:58.811Z,8.86
2023-04-12T08:26:58.763Z,8.93
2023-04-12T08:27:58.762Z,9.02
2023-04-12T08:28:58.749Z,9.10
2023-04-12T08:29:58.754Z,9.20
2023-04-12T08:30:58.816Z,9.25
2023-04-12T08:31:58.733Z,9.30
2023-04-12T08:32:58.725Z,9.28
2023-04-12T08:33:58.825Z,9.27
2023-04-12T08:34:58.696Z,9.24
2023-04-12T08:35:58.719Z,9.20
2023-04-12T08:36:58.628Z,9.13
2023-04-12T08:37:58.613Z,9.12
2023-04-12T08:38:58.627Z,9.13
2023-04-12T08:39:58.617Z,9.15
2023-04-12T08:40:58.589Z,9.16
2023-04-12T08:41:58.580Z,9.05
2023-04-12T08:42:58.563Z,9.01
2023-04-12T08:43:58.656Z,8.99
2023-04-12T08:44:58.566Z,9.02
2023-04-12T08:45:58.523Z,9.05
2023-04-12T08:46:58.648Z,9.09
2023-04-12T08:47:58.535Z,9.13
2023-04-12T08:48:58.511Z,9.16
2023-04-12T08:49:58.469Z,9.25
2023-04-12T08:50:58.494Z,9.24
2023-04-12T08:51:58.432Z,9.20
2023-04-12T08:52:58.429Z,9.21
2023-04-12T08:53:58.528Z,9.25
2023-04-12T08:54:58.399Z,9.30
2023-04-12T08:55:58.404Z,9.34
2023-04-12T08:56:58.363Z,9.35
2023-04-12T08:57:58.374Z,9.31
2023-04-12T08:58:58.358Z,9.34
2023-04-12T08:59:58.331Z,9.32
2023-04-12T09:00:58.379Z,9.35
2023-04-12T09:01:58.397Z,9.38
2023-04-12T09:02:58.419Z,9.42
2023-04-12T09:03:58.782Z,9.39
2023-04-12T09:04:58.625Z,9.31
2023-04-12T09:05:58.278Z,9.30
2023-04-12T09:06:58.242Z,9.30
2023-04-12T09:07:58.259Z,9.28
2023-04-12T09:08:58.272Z,9.30
2023-04-12T09:09:58.210Z,9.32
2023-04-12T09:10:58.198Z,9.35
2023-04-12T09:11:58.164Z,9.30
2023-04-12T09:12:58.172Z,9.31
2023-04-12T09:13:58.816Z,9.28
2023-04-12T09:14:58.127Z,9.27
2023-04-12T09:15:58.135Z,9.30
2023-04-12T09:16:58.163Z,9.24
2023-04-12T09:17:58.119Z,9.20
2023-04-12T09:18:58.392Z,9.15
2023-04-12T09:19:58.070Z,9.18
2023-04-12T09:20:58.092Z,9.23
2023-04-12T09:21:58.043Z,9.21
2023-04-12T09:22:58.058Z,9.21
2023-04-12T09:23:58.263Z,9.21
2023-04-12T09:24:57.995Z,9.21
2023-04-12T09:25:58.016Z,9.24
2023-04-12T09:26:57.964Z,9.23
2023-04-12T09:27:57.993Z,9.24
2023-04-12T09:28:57.978Z,9.25
2023-04-12T09:30:00.051Z,9.27
2023-04-12T09:30:57.973Z,9.25
2023-04-12T09:31:57.984Z,9.24
2023-04-12T09:32:57.935Z,9.25
2023-04-12T09:33:58.079Z,9.21
2023-04-12T09:34:57.957Z,9.10
2023-04-12T09:35:57.936Z,9.02
2023-04-12T09:36:57.894Z,8.96
2023-04-12T09:37:57.863Z,8.96
2023-04-12T09:38:57.822Z,8.96
2023-04-12T09:39:57.810Z,8.97
2023-04-12T09:40:57.857Z,9.02
2023-04-12T09:41:57.801Z,8.97
2023-04-12T09:42:57.782Z,8.99
2023-04-12T09:43:58.157Z,8.99
2023-04-12T09:44:57.733Z,9.04
2023-04-12T09:45:57.848Z,9.05
2023-04-12T09:46:57.779Z,9.06
2023-04-12T10:03:11.096Z,9.21
2023-04-12T10:04:10.840Z,9.23
2023-04-12T10:05:10.756Z,9.23
2023-04-12T10:06:10.644Z,9.18
2023-04-12T10:07:11.481Z,9.20
2023-04-12T10:08:10.892Z,9.16
2023-04-12T10:09:10.618Z,9.20
2023-04-12T10:10:10.572Z,9.20
2023-04-12T10:11:10.612Z,9.18
2023-04-12T10:12:10.553Z,9.18
2023-04-12T10:13:10.563Z,9.18
2023-04-12T10:14:10.571Z,9.20
2023-04-12T10:15:10.519Z,9.20
2023-04-12T10:16:10.564Z,9.13
2023-04-12T10:17:10.487Z,9.04
2023-04-12T10:18:10.558Z,9.10
2023-04-12T10:19:10.474Z,9.12
2023-04-12T10:20:10.459Z,9.05
2023-04-12T10:21:10.450Z,9.05
2023-04-12T10:22:10.451Z,9.04
2023-04-12T10:23:10.425Z,9.09
2023-04-12T10:24:10.390Z,9.16
2023-04-12T10:25:10.418Z,9.25
2023-04-12T10:26:10.408Z,9.34
2023-04-12T10:27:10.348Z,9.43
2023-04-12T10:28:10.359Z,9.52
2023-04-12T10:29:10.337Z,9.57
2023-04-12T10:30:10.359Z,9.63
2023-04-12T10:31:10.399Z,9.70
2023-04-12T10:32:10.457Z,9.76
2023-04-12T10:33:10.418Z,9.81
2023-04-12T10:34:10.267Z,9.88
2023-04-12T10:35:10.273Z,9.89
2023-04-12T10:36:10.322Z,9.91
2023-04-12T10:37:10.248Z,9.88
2023-04-12T10:38:10.219Z,9.83
2023-04-12T10:39:10.216Z,9.83
2023-04-12T10:40:10.200Z,9.83
2023-04-12T10:41:10.207Z,9.86
2023-04-12T10:42:10.161Z,9.85
2023-04-12T10:43:10.177Z,9.86
2023-04-12T10:44:10.129Z,9.86
2023-04-12T10:45:10.134Z,9.91
2023-04-12T10:46:10.122Z,9.83
2023-04-12T10:47:10.147Z,9.82
2023-04-12T10:48:10.232Z,9.86
2023-04-12T10:49:10.077Z,9.93
2023-04-12T10:50:10.070Z,10.04
2023-04-12T10:51:10.067Z,10.14
2023-04-12T10:52:10.098Z,10.21
2023-04-12T10:53:10.103Z,10.30
2023-04-12T10:54:10.018Z,10.26
2023-04-12T10:55:10.026Z,10.36
2023-04-12T10:56:09.992Z,10.43
2023-04-12T10:57:09.987Z,10.53
2023-04-12T10:58:09.958Z,10.70
2023-04-12T10:59:10.007Z,10.81
2023-04-12T11:00:09.938Z,10.55
2023-04-12T11:01:10.108Z,10.66
2023-04-12T11:02:10.057Z,10.83
2023-04-12T11:03:10.201Z,10.77
2023-04-12T11:04:10.135Z,10.77
2023-04-12T11:05:10.440Z,10.73
2023-04-12T11:06:24.098Z,10.76
2023-04-12T11:07:10.866Z,10.77
2023-04-12T11:08:09.825Z,10.73
2023-04-12T11:09:09.823Z,10.66
2023-04-12T11:10:09.808Z,10.66
2023-04-12T11:11:09.823Z,10.70
2023-04-12T11:12:11.096Z,10.73
2023-04-12T11:13:09.796Z,10.62
2023-04-12T11:14:09.769Z,10.60
2023-04-12T11:15:09.747Z,10.63
2023-04-12T11:16:09.757Z,10.60
2023-04-12T11:17:09.843Z,10.58
2023-04-12T11:18:09.731Z,10.58
2023-04-12T11:19:09.676Z,10.60
2023-04-12T11:20:09.686Z,10.66
2023-04-12T11:21:09.661Z,10.76
2023-04-12T11:22:09.622Z,10.77
2023-04-12T11:23:11.367Z,10.74
2023-04-12T11:24:09.608Z,10.74
2023-04-12T11:25:09.611Z,10.71
2023-04-12T11:26:09.573Z,10.63
2023-04-12T11:27:09.582Z,10.58
2023-04-12T11:28:25.108Z,10.40
2023-04-12T11:29:10.560Z,10.32
2023-04-12T11:30:09.541Z,10.25
2023-04-12T11:31:09.524Z,10.18
2023-04-12T11:32:09.575Z,10.14
2023-04-12T11:33:09.540Z,10.14
2023-04-12T11:34:09.493Z,10.17
2023-04-12T11:35:09.484Z,10.09
2023-04-12T11:36:09.456Z,10.12
2023-04-12T11:37:09.455Z,10.18
2023-04-12T11:38:09.451Z,10.21
2023-04-12T11:39:09.434Z,10.18
2023-04-12T11:40:09.449Z,10.18
2023-04-12T11:41:09.409Z,10.18
2023-04-12T11:42:09.414Z,10.18
2023-04-12T11:43:09.364Z,10.17
2023-04-12T11:44:09.349Z,10.17
2023-04-12T11:45:15.758Z,10.17
2023-04-12T11:46:10.419Z,10.17
2023-04-12T11:47:09.315Z,10.06
2023-04-12T11:48:09.378Z,10.06
2023-04-12T11:49:09.296Z,10.10
2023-04-12T11:50:09.266Z,10.06
2023-04-12T11:51:11.634Z,10.03
2023-04-12T11:52:09.274Z,10.01
2023-04-12T11:53:09.237Z,9.96
2023-04-12T11:54:09.238Z,9.97
2023-04-12T11:55:09.214Z,9.99
2023-04-12T11:56:09.249Z,10.03
2023-04-12T11:57:09.208Z,10.09
2023-04-12T11:58:09.169Z,10.09
2023-04-12T11:59:09.154Z,10.09
2023-04-12T12:00:09.158Z,10.06
2023-04-12T12:01:09.137Z,10.07
2023-04-12T12:02:22.065Z,10.07
2023-04-12T12:03:10.223Z,10.09
2023-04-12T12:04:09.256Z,10.10
2023-04-12T12:05:09.220Z,10.04
2023-04-12T12:06:09.274Z,9.99
2023-04-12T12:07:09.306Z,10.04
2023-04-12T12:08:09.074Z,10.04
2023-04-12T12:09:09.059Z,10.06
2023-04-12T12:10:09.006Z,10.07
2023-04-12T12:11:09.199Z,10.12
2023-04-12T12:12:08.977Z,10.12
2023-04-12T12:13:09.007Z,10.14
2023-04-12T12:14:08.955Z,10.12
2023-04-12T12:15:08.951Z,10.09
2023-04-12T12:16:09.009Z,10.10
2023-04-12T12:17:08.909Z,10.09
2023-04-12T12:18:09.059Z,10.09
2023-04-12T12:19:08.889Z,10.17
2023-04-12T12:20:08.880Z,10.22
2023-04-12T12:21:08.847Z,10.32
2023-04-12T12:22:08.870Z,10.42
2023-04-12T12:23:08.853Z,10.44
2023-04-12T12:24:08.828Z,10.40
2023-04-12T12:25:08.831Z,10.46
2023-04-12T12:26:17.910Z,10.40
2023-04-12T12:27:09.811Z,10.32
2023-04-12T12:28:08.858Z,10.33
2023-04-12T12:29:08.803Z,10.36
2023-04-12T12:30:08.766Z,10.28
2023-04-12T12:31:08.742Z,10.21
2023-04-12T12:32:08.731Z,10.18
2023-04-12T12:33:08.773Z,10.18
2023-04-12T12:34:09.380Z,10.18
2023-04-12T12:35:08.679Z,10.22
2023-04-12T12:36:08.719Z,10.30
2023-04-12T12:37:08.668Z,10.36
2023-04-12T12:38:08.676Z,10.47
2023-04-12T12:39:08.647Z,10.55
2023-04-12T12:40:08.654Z,10.55
2023-04-12T12:41:08.608Z,10.62
2023-04-12T12:42:08.613Z,10.70
2023-04-12T12:43:08.605Z,10.73
2023-04-12T12:44:08.662Z,10.80
2023-04-12T12:45:08.556Z,10.84
2023-04-12T12:46:08.596Z,10.91
2023-04-12T12:47:13.985Z,10.96
2023-04-12T12:48:09.664Z,11.01
2023-04-12T12:49:08.504Z,11.01
2023-04-12T12:50:08.530Z,11.01
2023-04-12T12:51:08.483Z,10.88
2023-04-12T12:52:08.470Z,10.86
2023-04-12T12:53:08.463Z,10.86
2023-04-12T12:54:08.482Z,10.91
2023-04-12T12:55:08.435Z,10.91
2023-04-12T12:56:08.406Z,10.86
2023-04-12T12:57:08.453Z,10.89
2023-04-12T12:58:08.675Z,10.84
2023-04-12T12:59:08.404Z,10.83
2023-04-12T13:00:08.379Z,10.81
2023-04-12T13:01:08.364Z,10.80
2023-04-12T13:02:08.418Z,10.80
2023-04-12T13:03:08.523Z,10.83
2023-04-12T13:04:08.484Z,10.88
2023-04-12T13:05:10.211Z,10.84
2023-04-12T13:06:08.281Z,10.78
2023-04-12T13:07:08.272Z,10.76
2023-04-12T13:08:08.278Z,10.74
2023-04-12T13:09:08.248Z,10.78
2023-04-12T13:10:08.294Z,10.81
2023-04-12T13:11:08.260Z,10.83
2023-04-12T13:12:08.200Z,10.84
2023-04-12T13:13:08.212Z,10.83
2023-04-12T13:14:08.177Z,10.84
2023-04-12T13:15:20.935Z,10.86
2023-04-12T13:16:09.186Z,10.91
2023-04-12T13:17:08.128Z,10.91
2023-04-12T13:18:08.165Z,10.96
2023-04-12T13:19:08.176Z,10.98
2023-04-12T13:20:08.117Z,11.01
2023-04-12T13:21:08.091Z,11.07
2023-04-12T13:22:08.093Z,11.14
2023-04-12T13:23:08.083Z,11.11
2023-04-12T13:24:08.041Z,11.11
2023-04-12T13:25:08.055Z,11.16
2023-04-12T13:26:08.044Z,11.17
2023-04-12T13:27:08.017Z,11.14
2023-04-12T13:28:08.004Z,11.13
2023-04-12T13:29:07.982Z,11.07
2023-04-12T13:30:07.971Z,10.98
2023-04-12T13:31:08.039Z,10.94
2023-04-12T13:32:08.229Z,10.91
2023-04-12T13:33:07.967Z,10.91
2023-04-12T13:34:08.018Z,10.94
2023-04-12T13:35:07.940Z,10.94
2023-04-12T13:36:07.901Z,10.89
2023-04-12T13:37:07.883Z,10.91
2023-04-12T13:38:07.894Z,10.92
2023-04-12T13:39:07.853Z,10.95
2023-04-12T13:40:07.855Z,10.91
2023-04-12T13:41:07.838Z,10.95